Weather at San Manuel Airport

Public forecast

Using degrees Fahrenheit for public forecast. Weather courtesy of forecast.io.

Closest aviation weather report (METAR) to San Manuel Airport

Closest report is Davis Monthan Air Force Base, 30.7 nm (56.8 km) SSW. Retrieved 2022/08/12 01:58 UTC (41 minutes ago):

KDMA 120158Z AUTO 08010KT 10SM FEW130 31/18 A3000 RMK AO2 LTG DSNT E AND S SLP116 T03050182

Closest aviation forecast (TAF) to San Manuel Airport

Closest forecast is Davis Monthan Air Force Base, 30.7 nm (56.8 km) SSW. Retrieved 2022/08/11 22:36 UTC (4 hours ago):

TAF KDMA 112215Z 1122/1304 VRB10G20KT 9999 VCTS SCT080CB BKN120 QNH2998INS TEMPO 1122/1123 VRB15G30KT 9000 -TSRA BKN080CB TEMPO 1123/1202 9000 -TSRA BKN080CB BECMG 1203/1204 12006KT 9999 NSW SCT060 QNH3001INS BECMG 1218/1219 VRB10G20KT 9000 -TSRA SCT070CB QNH3000INS BECMG 1300/1301 12006KT 9999 NSW BKN060 QNH2998INS TX34/1122Z TN22/1213Z